Vidsel, Sweden

12:55 PM CET on January 29, 2015 (GMT +0100)
Vidsel Air Base | Change Station
CLOSE
Current Station
Airport
Location: Vidsel,
Elevation: 597 ft
Nearby Weather Stations

Elev 597 ft 65.88 °N, 20.14 °E | Updated 5 minutes ago

Heavy Snow
Heavy Snow
21 °F
Feels Like 13 °F
N
7
Wind Variable Wind from ENE

Today
High -- | Low -- °F
--% Chance of Precip.
Yesterday
High -- | Low -- °F
Precip. -- in
8:46 AM 2:59 PM
Waxing Gibbous, 73% visible
Pressure 28.97 in
Visibility 0.5 miles
Clouds
Windchill 13 °F
Dew Point 19 °F
Humidity 93%
Rainfall 0.00 in
Snow Depth Not available.
UV Not available.
Pollen Not available.
Air Quality Not available.
Flu Activity Not available.
METAR ESPE 291150Z 06006KT 030V090 0800 R11/0900VP1500U R29/1200N +SN VV010 M06/M07 Q0981

More Conditions Fewer Conditions

Pressure 28.97 in
Visibility 0.5 miles
Clouds
Windchill 13 °F
Dew Point 19 °F
Humidity 93%
Rainfall 0.00 in
Snow Depth Not available.
UV Not available.
Pollen Not available.
Air Quality Not available.
Flu Activity Not available.
METAR ESPE 291150Z 06006KT 030V090 0800 R11/0900VP1500U R29/1200N +SN VV010 M06/M07 Q0981

More Conditions Fewer Conditions

10-Day Weather Forecast

Almanac

Astronomy

Jan. 29, 2015 Rise Set
Actual Time
Civil Twilight
Nautical Twilight
Astronomical Twilight
Moon
Length of Visible Light
Length of Day
Tomorrow will be .
, % of the Moon is Illuminated

Today's Extremes

Country Highs Country Lows

Community

WunderPhotos

Upload Photos

1,791,408 photos uploaded!

WunderBlogs® & News

Nearby

Air Quality

  Air Quality AQ Index Pollutant
Not available.

Snow Depth

Station Depth Elevation

Earthquake Activity

City Distance Mag. Time & Date
Minimum magnitude displayed is 2.5.

Coastal Water Temperatures

Place Temperature

Nearby Weather Stations